FCDMC ALERT System Data Display

81507 Spookhill FRS @ Brown Rd.
Impoundment Stage

Impoundment Stage
Date       Time        feet      cfs
10/21/2021 12:00:00    0.29        3
10/21/2021 08:28:00    0.37       40
10/21/2021 00:00:00    0.47       41
10/20/2021 18:00:00    0.37       40
10/20/2021 12:37:00    0.37       40
10/20/2021 12:00:00    0.27        0
10/20/2021 08:11:00    0.27        0
10/20/2021 00:00:00    0.32       16
10/19/2021 18:00:00    0.27        0
10/19/2021 12:00:00    0.27        0
10/19/2021 08:05:00    0.27        0
10/19/2021 06:00:00    0.39       40
10/19/2021 00:00:00    0.32       16
10/18/2021 18:00:00    0.27        0
10/18/2021 12:00:00    0.27        0
10/18/2021 06:00:00    0.34       30
10/18/2021 00:00:00    0.34       30
10/17/2021 18:00:00    0.27        0
10/17/2021 12:00:00    0.27        0
10/17/2021 06:00:00    0.34       30
10/17/2021 00:00:00    0.27        0
10/16/2021 18:00:00    0.27        0
10/16/2021 12:00:00    0.27        0
10/16/2021 06:00:00    0.29        3
10/16/2021 00:00:00    0.27        0
10/15/2021 18:00:00    0.27        0
10/15/2021 12:00:00    0.27        0
10/15/2021 06:00:00    0.34       30
10/15/2021 00:00:00    0.34       30
10/14/2021 21:58:00    0.37       40
10/14/2021 18:00:00    0.27        0
10/14/2021 12:00:00    0.27        0
10/14/2021 07:57:00    0.29        3
10/14/2021 06:00:00    0.42       40
10/14/2021 00:00:00    0.42       40
10/13/2021 20:56:00    0.37       40
10/13/2021 18:00:00    0.27        0
10/13/2021 12:00:00    0.27        0
10/13/2021 07:54:00    0.34       30
10/13/2021 06:00:00    0.47       41
10/13/2021 00:00:00    0.39       40
10/12/2021 18:00:00    0.29        3
10/12/2021 12:00:00    0.27        0
10/12/2021 08:24:00    0.29        3
10/12/2021 06:00:00    0.42       40
10/12/2021 00:00:00    0.32       16
10/11/2021 18:00:00    0.27        0
10/11/2021 07:52:00    0.27        0
10/11/2021 00:00:00    0.32       16
10/10/2021 18:00:00    0.27        0
10/10/2021 12:00:00    0.27        0
10/10/2021 07:56:00    0.27        0
10/10/2021 06:00:00    0.39       40
10/10/2021 00:00:00    0.34       30
10/09/2021 18:00:00    0.27        0
10/09/2021 12:00:00    0.27        0
10/09/2021 06:00:00    0.29        3
10/09/2021 00:00:00    0.27        0
10/08/2021 18:00:00    0.27        0
10/08/2021 12:00:00    0.27        0
10/08/2021 06:00:00    0.29        3
10/08/2021 00:00:00    0.29        3
10/07/2021 18:00:00    0.27        0
10/07/2021 12:00:00    0.27        0
10/07/2021 06:00:00    0.29        3
10/07/2021 00:00:00    0.27        0
10/06/2021 18:00:00    0.27        0
10/06/2021 12:00:00    0.27        0
10/06/2021 06:00:00    0.32       16
10/06/2021 00:00:00    0.27        0
10/05/2021 18:00:00    0.27        0
10/05/2021 12:00:00    0.27        0
10/05/2021 06:00:00    0.29        3
10/05/2021 00:00:00    0.27        0
10/04/2021 18:00:00    0.27        0
10/04/2021 12:00:00    0.27        0
10/04/2021 06:00:00    0.27        0
10/04/2021 00:00:00    0.27        0
10/03/2021 18:00:00    0.27        0
10/03/2021 12:00:00    0.27        0
10/03/2021 06:00:00    0.32       16
10/03/2021 00:00:00    0.27        0
10/02/2021 18:00:00    0.27        0
10/02/2021 12:00:00    0.27        0
10/02/2021 06:00:00    0.27        0
10/02/2021 00:00:00    0.27        0
10/01/2021 18:00:00    0.27        0
10/01/2021 12:00:00    0.27        0
10/01/2021 06:00:00    0.27        0
10/01/2021 00:00:00    0.27        0
09/30/2021 18:00:00    0.27        0
09/30/2021 12:00:00    0.27        0
09/30/2021 06:00:00    0.27        0
09/30/2021 00:00:00    0.27        0
09/29/2021 18:00:00    0.27        0
09/29/2021 12:00:00    0.27        0
09/29/2021 06:00:00    0.27        0
09/29/2021 00:00:00    0.27        0
09/28/2021 18:00:00    0.27        0
09/28/2021 12:00:00    0.27        0